Kezdőlap
METAR-TAF:

METAR-TAF

Repülőterek :

Granite Falls Municipal Airport (Lenzen-Roe Memorial Field)

Granite Falls, Minnesota, Amerikai Egyesült Államok

földrajzi szélesség: 44-45-11N, földrajzi hosszúság: 095-33-21W, magasság: 319 m

Jelenlegi meteorológiai megfigyelések

A jelentés 29 perccel ezelõtt készült, 17:15 UTC
Délkeleti szél 8 kt
Hőmérséklet 29°C
Páratartalom 74%
Légköri nyomás 1014 hPa
Látótávolság: 16.1 km
Szakadozott felhőzet 2100 lábon
Szakadozott felhőzet 2700 lábon
Szakadozott felhőzet 3800 lábon

METAR: KGDB 131715Z AUTO 14008KT 10SM BKN021 BKN027 BKN038 29/24 A2995 RMK AO2 T02900242

Idő: 12:44 (17:44 UTC)


TAF: hiányzik

Meteorológiai megfigyelések és előrejelzések több, mint 4000 repülőtéren (METAR és TAF jelentéseket).

A térképen piros és sárga pontok jelzik az elérhető meteorológiai állomásokat.

Mozgassa az egeret a pont fölött, hogy megjelenjen az állomás neve.

Azután kattintson az időjárási megfigyelések és előrejelzések megtekintéséhez.

A térkép megváltoztatása: kattintson a fekete keresztel jelölt zöld gombra ráközelítéshez, a vonallal jelölt zöld gombra távolításhoz, vagy a zöld nyilakra a szomszédos térképek eléréséhez.


METAR-TAF: